Terminal Aerodrome Forecast
Issued by NWS Pittsburgh, PA

Current Version | Previous Version | Text Only | Print | Product List | Glossary Off
Versions: 1 2 3 4 5 6 7 8 9 10 11 12 13 14 15 16 17 18 19 20 21 22 23 24 25 26 27 28 29 30

000
FTUS41 KPBZ 212106 AAA
TAFPIT
TAF AMD
KPIT 212106Z 2121/2224 18008KT P6SM BKN025
      TEMPO 2121/2123 SCT015 BKN050
     FM220400 18008KT 3SM SHRA OVC015
     FM220700 28010KT P6SM OVC015
     FM221500 28010KT P6SM SCT050=

USA.gov is the U.S. government's official web portal to all federal, state and local government web resources and services.